Time;durP1;ratioP1;P1;durP2;ratioP2;P2;SDS_P1;SDS_P2;PMS_P1;PMS_P2;Temp;Humidity;BMP_temperature;BMP_pressure;BME280_temperature;BME280_humidity;BME280_pressure;Samples;Min_cycle;Max_cycle;Signal;HPM_P1;HPM_P2
2023/02/24 00:00:37;;;;;;;15.40;8.25;;;;;;;5.30;100.00;98089.75;4198915;28;20044;-76
2023/02/24 00:02:38;;;;;;;17.20;8.48;;;;;;;5.31;100.00;98088.59;4191450;28;20040;-76
2023/02/24 00:04:38;;;;;;;16.05;8.07;;;;;;;5.35;100.00;98075.75;4191642;28;20052;-76
2023/02/24 00:06:42;;;;;;;15.43;7.78;;;;;;;5.31;100.00;98083.13;4194165;28;20098;-76
2023/02/24 00:08:42;;;;;;;17.42;8.30;;;;;;;5.28;100.00;98073.63;4191679;28;20056;-76
2023/02/24 00:10:43;;;;;;;17.85;8.77;;;;;;;5.21;100.00;98072.66;4192128;28;20036;-75
2023/02/24 00:12:46;;;;;;;16.85;7.97;;;;;;;5.17;100.00;98074.50;4191491;28;20044;-75
2023/02/24 00:14:46;;;;;;;16.25;7.95;;;;;;;5.16;100.00;98073.72;4193655;28;20388;-76
2023/02/24 00:16:47;;;;;;;20.33;9.27;;;;;;;5.14;100.00;98073.28;4196632;28;20052;-76
2023/02/24 00:18:48;;;;;;;18.42;8.85;;;;;;;5.15;100.00;98065.84;4191771;28;20118;-76
2023/02/24 00:20:48;;;;;;;18.08;8.88;;;;;;;5.16;100.00;98075.66;4191412;28;20060;-76
2023/02/24 00:22:48;;;;;;;19.25;8.93;;;;;;;5.16;100.00;98068.22;4190255;28;20055;-76
2023/02/24 00:24:49;;;;;;;21.17;9.13;;;;;;;5.19;100.00;98070.25;4194570;28;20377;-75
2023/02/24 00:26:54;;;;;;;16.45;8.57;;;;;;;5.17;100.00;98066.28;4191666;28;20048;-76
2023/02/24 00:28:58;;;;;;;18.15;8.15;;;;;;;5.16;100.00;98061.97;4194264;28;20059;-76
2023/02/24 00:31:04;;;;;;;17.27;8.38;;;;;;;5.16;100.00;98059.22;4192136;28;20041;-76
2023/02/24 00:33:05;;;;;;;18.65;8.63;;;;;;;5.21;100.00;98058.94;4189728;28;20044;-76
2023/02/24 00:35:07;;;;;;;16.67;8.18;;;;;;;5.21;100.00;98053.44;4191954;28;20068;-76
2023/02/24 00:37:07;;;;;;;16.87;8.40;;;;;;;5.22;100.00;98053.13;4191121;28;20075;-76
2023/02/24 00:39:09;;;;;;;17.80;8.90;;;;;;;5.19;100.00;98045.59;4191614;28;20323;-75
2023/02/24 00:41:21;;;;;;;18.15;8.52;;;;;;;5.17;100.00;98044.34;4191777;28;20048;-76
2023/02/24 00:43:21;;;;;;;18.08;8.60;;;;;;;5.14;100.00;98040.38;4191858;28;20036;-76
2023/02/24 00:45:21;;;;;;;16.00;7.97;;;;;;;5.21;100.00;98039.72;4191111;28;20124;-76
2023/02/24 00:47:22;;;;;;;17.23;8.82;;;;;;;5.19;100.00;98036.56;4190414;28;20049;-75
2023/02/24 00:49:23;;;;;;;18.67;8.77;;;;;;;5.18;100.00;98045.94;4192341;28;20063;-76
2023/02/24 00:51:25;;;;;;;15.77;9.02;;;;;;;5.13;100.00;98041.53;4190129;28;20044;-75
2023/02/24 00:53:28;;;;;;;;;;;;;;;5.16;100.00;98040.81;4190736;28;20059;-76
2023/02/24 00:55:35;;;;;;;16.73;8.40;;;;;;;5.19;100.00;98031.88;4191583;28;19908;-75
2023/02/24 00:57:38;;;;;;;18.73;9.38;;;;;;;5.19;100.00;98028.31;4192345;28;20040;-75
2023/02/24 00:59:39;;;;;;;15.00;8.15;;;;;;;5.22;100.00;98027.63;4190605;28;20469;-76
2023/02/24 01:01:40;;;;;;;14.43;7.63;;;;;;;5.24;100.00;98036.31;4190934;28;20091;-76
2023/02/24 01:03:41;;;;;;;12.35;6.57;;;;;;;5.24;100.00;98023.38;4195971;28;20044;-76
2023/02/24 01:05:41;;;;;;;14.30;8.20;;;;;;;5.34;100.00;98025.59;4195501;28;20123;-76
2023/02/24 01:07:41;;;;;;;11.98;6.47;;;;;;;5.33;100.00;98020.47;4192069;28;20469;-76
2023/02/24 01:09:43;;;;;;;11.13;6.50;;;;;;;5.36;100.00;98017.78;4191380;28;20619;-75
2023/02/24 01:14:07;;;;;;;12.02;6.03;;;;;;;5.41;100.00;98022.22;4189962;28;20048;-76
2023/02/24 01:16:07;;;;;;;11.85;6.53;;;;;;;5.39;100.00;98012.78;4194843;28;20055;-75
2023/02/24 01:18:09;;;;;;;10.00;6.18;;;;;;;5.34;100.00;98006.38;4195242;28;20028;-75
2023/02/24 01:20:17;;;;;;;10.03;5.93;;;;;;;5.40;100.00;98008.88;4191107;28;20036;-75
2023/02/24 01:22:19;;;;;;;9.80;6.10;;;;;;;5.38;100.00;98008.41;4190873;28;20313;-75
2023/02/24 01:24:22;;;;;;;10.63;6.43;;;;;;;5.39;100.00;97999.84;4189407;28;20048;-76
2023/02/24 01:26:24;;;;;;;11.10;6.43;;;;;;;5.36;100.00;98001.34;4190751;28;20040;-75
2023/02/24 01:28:26;;;;;;;11.30;6.25;;;;;;;5.32;100.00;97988.69;4190544;28;20128;-76
2023/02/24 01:30:26;;;;;;;10.50;6.32;;;;;;;5.28;100.00;97983.09;4190396;28;20307;-75
2023/02/24 01:32:27;;;;;;;11.45;6.72;;;;;;;5.29;100.00;97992.13;4191093;28;20041;-76
2023/02/24 01:34:27;;;;;;;10.02;6.07;;;;;;;5.32;100.00;98000.47;4189444;28;20052;-75
2023/02/24 01:36:28;;;;;;;12.02;6.93;;;;;;;5.29;100.00;97983.91;4197359;28;20434;-76
2023/02/24 01:38:28;;;;;;;12.23;7.03;;;;;;;5.29;100.00;97992.13;4189265;28;20108;-75
2023/02/24 01:40:28;;;;;;;11.85;6.85;;;;;;;5.26;100.00;97977.19;4192832;28;20067;-75
2023/02/24 01:42:29;;;;;;;12.82;7.03;;;;;;;5.30;100.00;97978.09;4191335;28;20115;-76
2023/02/24 01:44:32;;;;;;;11.18;5.97;;;;;;;5.28;100.00;97974.09;4198166;28;20061;-76
2023/02/24 01:46:38;;;;;;;11.10;6.57;;;;;;;5.28;100.00;97963.91;4191060;28;20029;-75
2023/02/24 01:48:38;;;;;;;11.23;6.15;;;;;;;5.27;100.00;97961.53;4191053;28;20451;-75
2023/02/24 01:50:39;;;;;;;15.02;7.43;;;;;;;5.25;100.00;97964.63;4190174;28;20080;-75
2023/02/24 01:52:41;;;;;;;12.63;6.70;;;;;;;5.24;100.00;97962.25;4189948;28;20055;-75
2023/02/24 01:55:05;;;;;;;18.95;8.00;;;;;;;5.20;100.00;97958.59;4190376;28;20128;-75
2023/02/24 01:57:06;;;;;;;12.77;7.07;;;;;;;5.24;100.00;97962.25;4188650;28;20090;-75
2023/02/24 01:59:09;;;;;;;11.43;6.35;;;;;;;5.21;100.00;97963.75;4198190;28;20052;-76
2023/02/24 02:01:09;;;;;;;13.65;7.75;;;;;;;5.22;100.00;97959.88;4191071;28;20045;-76
2023/02/24 02:03:17;;;;;;;15.98;7.93;;;;;;;5.15;100.00;97954.22;4193185;28;20044;-75
2023/02/24 02:05:17;;;;;;;12.80;7.10;;;;;;;5.13;100.00;97953.78;4192098;28;20049;-75
2023/02/24 02:07:21;;;;;;;13.38;7.72;;;;;;;5.09;100.00;97955.63;4189595;28;20052;-75
2023/02/24 02:09:21;;;;;;;12.75;7.00;;;;;;;5.08;100.00;97948.53;4190397;28;20466;-75
2023/02/24 02:11:21;;;;;;;14.60;7.55;;;;;;;5.03;100.00;97957.81;4190390;28;20058;-75
2023/02/24 02:13:22;;;;;;;15.50;7.30;;;;;;;4.96;100.00;97948.63;4189553;28;20501;-75
2023/02/24 02:15:27;;;;;;;16.25;8.10;;;;;;;4.91;100.00;97938.72;4190531;28;20083;-76
2023/02/24 02:17:35;;;;;;;13.05;6.93;;;;;;;4.90;100.00;97947.31;4190435;28;20927;-75
2023/02/24 02:19:54;;;;;;;15.63;7.72;;;;;;;4.87;100.00;97940.56;4190404;28;20110;-75
2023/02/24 02:21:58;;;;;;;15.43;8.23;;;;;;;4.82;100.00;97945.53;4190644;28;20040;-75
2023/02/24 02:24:26;;;;;;;14.98;7.90;;;;;;;4.82;100.00;97934.56;4189511;28;20057;-75
2023/02/24 02:26:43;;;;;;;17.85;7.43;;;;;;;4.76;100.00;97937.56;4195039;28;20048;-75
2023/02/24 02:29:15;;;;;;;13.68;7.55;;;;;;;4.81;100.00;97933.78;4190326;28;20044;-75
2023/02/24 02:31:45;;;;;;;17.75;7.70;;;;;;;4.84;100.00;97940.50;4190293;28;20040;-75
2023/02/24 02:33:55;;;;;;;17.23;8.13;;;;;;;4.83;100.00;97931.47;4192007;28;20036;-75
2023/02/24 02:36:23;;;;;;;13.32;6.63;;;;;;;4.81;100.00;97920.06;4193877;28;20049;-75
2023/02/24 02:38:36;;;;;;;14.85;7.03;;;;;;;4.85;100.00;97931.13;4190496;28;20045;-76
2023/02/24 02:40:51;;;;;;;14.90;7.03;;;;;;;4.87;100.00;97926.88;4193401;28;20060;-75
2023/02/24 02:42:57;;;;;;;15.40;7.28;;;;;;;4.88;100.00;97928.47;4192526;28;20044;-75
2023/02/24 02:45:18;;;;;;;13.13;7.28;;;;;;;4.90;100.00;97923.44;4196462;28;20055;-76
2023/02/24 02:47:23;;;;;;;12.20;6.97;;;;;;;4.88;100.00;97923.00;4193921;28;20464;-76
2023/02/24 02:49:41;;;;;;;15.85;7.38;;;;;;;4.86;100.00;97911.56;4193107;28;20052;-76
2023/02/24 02:51:50;;;;;;;13.80;6.82;;;;;;;4.88;100.00;97916.69;4194596;28;20044;-76
2023/02/24 02:53:58;;;;;;;11.07;6.05;;;;;;;4.88;100.00;97909.31;4194921;28;20038;-75
2023/02/24 02:56:06;;;;;;;12.77;6.75;;;;;;;4.89;100.00;97913.63;4193293;28;20253;-75
2023/02/24 02:58:13;;;;;;;13.98;6.85;;;;;;;4.90;100.00;97912.47;4192899;28;20304;-75
2023/02/24 03:00:21;;;;;;;11.55;6.80;;;;;;;4.89;100.00;97908.16;4195741;28;20093;-76
2023/02/24 03:02:28;;;;;;;15.93;7.47;;;;;;;4.90;100.00;97898.75;4192303;28;20293;-76
2023/02/24 03:04:29;;;;;;;17.15;6.97;;;;;;;4.89;100.00;97902.66;4194555;28;20106;-75
2023/02/24 03:06:36;;;;;;;13.32;6.90;;;;;;;4.88;100.00;97894.78;4193353;28;20040;-76
2023/02/24 03:08:42;;;;;;;13.18;6.55;;;;;;;4.86;100.00;97895.13;4197007;28;20093;-75
2023/02/24 03:10:49;;;;;;;14.63;7.40;;;;;;;4.84;100.00;97886.47;4193931;28;20435;-75
2023/02/24 03:12:54;;;;;;;17.02;7.85;;;;;;;4.86;100.00;97889.66;4190932;28;20365;-75
2023/02/24 03:14:59;;;;;;;15.45;6.80;;;;;;;4.86;100.00;97886.91;4196897;28;20060;-76
2023/02/24 03:17:03;;;;;;;12.90;7.35;;;;;;;4.89;100.00;97880.72;4192575;28;20117;-76
2023/02/24 03:19:06;;;;;;;13.98;7.18;;;;;;;4.86;100.00;97880.63;4194253;28;20036;-76
2023/02/24 03:21:11;;;;;;;15.55;7.13;;;;;;;4.83;100.00;97879.41;4197507;28;20128;-75
2023/02/24 03:23:18;;;;;;;14.68;6.68;;;;;;;4.86;100.00;97883.38;4192145;28;20099;-76
2023/02/24 03:25:24;;;;;;;15.80;7.20;;;;;;;4.81;100.00;97873.50;4191993;28;20478;-76
2023/02/24 03:27:30;;;;;;;13.55;6.63;;;;;;;4.79;100.00;97873.81;4196250;28;20064;-76
2023/02/24 03:29:43;;;;;;;13.63;7.05;;;;;;;4.77;100.00;97869.84;4192793;28;20196;-76
2023/02/24 03:31:49;;;;;;;;;;;;;;;4.82;100.00;97874.28;4192717;28;20195;-75
2023/02/24 03:34:14;;;;;;;11.38;5.75;;;;;;;4.77;100.00;97865.16;4191291;28;19923;-75
2023/02/24 03:36:14;;;;;;;11.85;6.72;;;;;;;4.78;100.00;97868.69;4193664;28;20113;-76
2023/02/24 03:38:14;;;;;;;12.02;6.40;;;;;;;4.78;100.00;97866.75;4196513;28;20020;-76
2023/02/24 03:40:16;;;;;;;12.50;5.95;;;;;;;4.79;100.00;97865.59;4192474;28;20036;-75
2023/02/24 03:42:19;;;;;;;13.33;6.50;;;;;;;4.79;100.00;97862.84;4194916;28;20389;-75
2023/02/24 03:44:19;;;;;;;10.07;5.88;;;;;;;4.78;100.00;97864.00;4198971;28;20746;-75
2023/02/24 03:46:19;;;;;;;10.63;5.55;;;;;;;4.77;100.00;97858.88;4192618;28;20033;-75
2023/02/24 03:48:21;;;;;;;12.80;6.35;;;;;;;4.81;100.00;97856.25;4192426;28;20527;-75
2023/02/24 03:50:22;;;;;;;12.98;5.97;;;;;;;4.81;100.00;97857.03;4191893;28;20060;-76
2023/02/24 03:52:51;;;;;;;10.00;5.47;;;;;;;4.84;100.00;97869.22;4191560;28;20040;-76
2023/02/24 03:55:25;;;;;;;14.13;5.85;;;;;;;4.84;100.00;97852.78;4193134;28;20059;-76
2023/02/24 03:57:53;;;;;;;9.98;6.00;;;;;;;4.85;100.00;97857.91;4191445;28;20451;-75
2023/02/24 04:00:24;;;;;;;10.15;5.85;;;;;;;4.85;100.00;97841.47;4192231;28;20076;-75
2023/02/24 04:02:29;;;;;;;10.70;5.72;;;;;;;4.87;100.00;97847.38;4194038;28;20127;-75
2023/02/24 04:04:49;;;;;;;10.73;6.25;;;;;;;4.89;100.00;97847.03;4191608;28;20044;-76
2023/02/24 04:06:59;;;;;;;12.82;6.30;;;;;;;4.88;100.00;97846.25;4196083;28;20334;-75
2023/02/24 04:09:25;;;;;;;10.48;5.75;;;;;;;4.86;100.00;97843.03;4192669;28;20088;-76
2023/02/24 04:11:32;;;;;;;13.65;6.35;;;;;;;4.85;100.00;97840.66;4197436;28;20056;-76
2023/02/24 04:13:37;;;;;;;10.65;5.95;;;;;;;4.85;100.00;97833.25;4197186;28;20425;-75
2023/02/24 04:15:46;;;;;;;12.73;6.63;;;;;;;4.84;100.00;97834.38;4191844;28;20131;-76
2023/02/24 04:17:50;;;;;;;13.30;6.30;;;;;;;4.84;100.00;97834.38;4186584;28;20419;-76
2023/02/24 04:19:56;;;;;;;12.43;6.20;;;;;;;4.85;100.00;97837.94;4191148;28;20445;-75
2023/02/24 04:21:56;;;;;;;12.63;5.55;;;;;;;4.82;100.00;97824.94;4192421;28;20047;-75
2023/02/24 04:24:01;;;;;;;12.23;5.82;;;;;;;4.83;100.00;97824.59;4192697;28;20119;-76
2023/02/24 04:26:02;;;;;;;11.27;6.00;;;;;;;4.82;100.00;97825.75;4193573;28;20045;-76
2023/02/24 04:28:03;;;;;;;10.82;5.75;;;;;;;4.87;100.00;97825.44;4188546;28;20487;-76
2023/02/24 04:30:05;;;;;;;9.98;6.30;;;;;;;4.87;100.00;97828.19;4186991;28;20059;-76
2023/02/24 04:32:08;;;;;;;12.85;5.72;;;;;;;4.86;100.00;97817.59;4193563;28;20033;-76
2023/02/24 04:34:09;;;;;;;12.15;5.90;;;;;;;4.85;100.00;97818.75;4190823;28;20057;-76
2023/02/24 04:36:11;;;;;;;14.40;7.00;;;;;;;4.80;100.00;97814.34;4192808;28;20040;-76
2023/02/24 04:38:12;;;;;;;14.45;6.55;;;;;;;4.79;100.00;97813.53;4189781;28;20029;-76
2023/02/24 04:40:20;;;;;;;13.98;6.07;;;;;;;4.84;100.00;97823.44;4197566;28;20031;-76
2023/02/24 04:42:21;;;;;;;18.95;9.00;;;;;;;4.89;100.00;97809.47;4191573;28;20214;-76
2023/02/24 04:44:22;;;;;;;18.23;8.45;;;;;;;4.71;100.00;97810.97;4190506;28;20072;-76
2023/02/24 04:46:22;;;;;;;21.55;9.20;;;;;;;4.56;100.00;97803.59;4192235;28;20052;-76
2023/02/24 04:48:22;;;;;;;20.70;9.35;;;;;;;4.46;100.00;97802.16;4195547;28;20048;-76
2023/02/24 04:50:24;;;;;;;17.40;7.45;;;;;;;4.38;100.00;97792.97;4194553;28;20044;-76
2023/02/24 04:52:25;;;;;;;22.02;8.82;;;;;;;4.32;100.00;97796.34;4193015;28;20048;-76
2023/02/24 04:54:26;;;;;;;21.83;10.10;;;;;;;4.21;100.00;97794.09;4189892;28;20048;-76
2023/02/24 04:56:27;;;;;;;18.60;7.90;;;;;;;4.15;100.00;97789.28;4192722;28;20048;-76
2023/02/24 04:58:28;;;;;;;18.88;8.32;;;;;;;4.12;100.00;97792.69;4191332;28;20110;-75
2023/02/24 05:00:34;;;;;;;20.40;9.00;;;;;;;4.10;100.00;97779.38;4189247;28;20040;-75
2023/02/24 05:02:36;;;;;;;21.20;8.48;;;;;;;4.00;100.00;97779.88;4190074;28;20056;-76
2023/02/24 05:04:37;;;;;;;18.90;7.25;;;;;;;4.01;100.00;97777.94;4190520;28;20127;-76
2023/02/24 05:06:42;;;;;;;18.83;8.20;;;;;;;3.98;100.00;97776.72;4189397;28;20068;-76
2023/02/24 05:08:43;;;;;;;15.50;7.97;;;;;;;3.98;100.00;97776.72;4186190;28;20098;-76
2023/02/24 05:10:45;;;;;;;22.52;7.95;;;;;;;3.94;100.00;97771.13;4190347;28;20555;-76
2023/02/24 05:12:46;;;;;;;20.27;8.32;;;;;;;3.92;100.00;97772.63;4188855;28;20037;-76
2023/02/24 05:14:48;;;;;;;18.75;8.05;;;;;;;3.90;100.00;97758.53;4187596;28;20053;-76
2023/02/24 05:16:48;;;;;;;15.02;7.03;;;;;;;3.90;100.00;97764.00;4186948;28;20041;-76
2023/02/24 05:18:49;;;;;;;20.17;7.45;;;;;;;3.86;100.00;97761.16;4185676;28;20128;-76
2023/02/24 05:23:10;;;;;;;20.20;7.90;;;;;;;3.86;100.00;97758.41;4193347;28;20102;-76
2023/02/24 05:25:13;;;;;;;18.23;7.38;;;;;;;3.87;100.00;97765.47;4193073;28;20052;-75
2023/02/24 05:27:16;;;;;;;22.65;8.35;;;;;;;3.81;100.00;97763.38;4189017;28;20044;-76
2023/02/24 05:29:17;;;;;;;19.38;7.68;;;;;;;3.81;100.00;97761.41;4199661;28;20734;-76
2023/02/24 05:31:24;;;;;;;15.43;6.78;;;;;;;3.78;100.00;97772.25;4195761;28;20037;-76
2023/02/24 05:33:25;;;;;;;16.77;6.47;;;;;;;3.66;100.00;97776.66;4191889;28;20183;-76
2023/02/24 05:35:25;;;;;;;12.10;6.35;;;;;;;3.69;100.00;97756.00;4187142;28;20129;-75
2023/02/24 05:37:26;;;;;;;17.58;6.38;;;;;;;3.71;100.00;97766.59;4202765;28;20047;-75
2023/02/24 05:39:27;;;;;;;14.65;6.85;;;;;;;3.62;100.00;97759.34;4191009;28;20523;-75
2023/02/24 05:41:34;;;;;;;14.23;6.75;;;;;;;3.65;100.00;97769.59;4191402;28;20044;-75
2023/02/24 05:43:34;;;;;;;16.45;7.68;;;;;;;3.57;100.00;97767.81;4185705;28;20056;-75
2023/02/24 05:45:35;;;;;;;15.85;7.80;;;;;;;3.58;100.00;97752.19;4188288;28;20037;-77
2023/02/24 05:47:37;;;;;;;17.58;7.82;;;;;;;3.62;100.00;97758.53;4185438;28;20041;-77
2023/02/24 05:49:37;;;;;;;20.55;8.10;;;;;;;3.54;100.00;97763.03;4191244;28;20051;-77
2023/02/24 05:51:42;;;;;;;16.73;6.95;;;;;;;3.48;100.00;97753.50;4194051;28;20048;-77
2023/02/24 05:53:42;;;;;;;22.08;8.23;;;;;;;3.41;100.00;97761.50;4188581;28;20408;-77
2023/02/24 05:55:43;;;;;;;15.77;7.35;;;;;;;3.40;100.00;97759.91;4193490;28;20045;-77
2023/02/24 05:57:43;;;;;;;18.65;8.32;;;;;;;3.47;100.00;97770.22;4190766;28;20135;-76
2023/02/24 05:59:44;;;;;;;20.85;7.35;;;;;;;3.43;100.00;97761.94;4188730;28;21122;-76
2023/02/24 06:01:47;;;;;;;22.13;9.27;;;;;;;3.30;100.00;97757.66;4191204;28;20512;-76
2023/02/24 06:03:48;;;;;;;21.58;8.00;;;;;;;3.33;100.00;97767.91;4185565;28;20060;-76
2023/02/24 06:05:52;;;;;;;19.40;6.60;;;;;;;3.34;100.00;97759.34;4188806;28;20488;-76
2023/02/24 06:08:03;;;;;;;20.90;7.95;;;;;;;3.31;100.00;97751.88;4188082;28;20068;-77
2023/02/24 06:10:09;;;;;;;19.00;7.50;;;;;;;3.26;100.00;97757.56;4189383;28;20048;-77
2023/02/24 06:12:10;;;;;;;27.05;9.20;;;;;;;3.22;100.00;97748.44;4189170;28;20036;-76
2023/02/24 06:14:12;;;;;;;24.48;7.93;;;;;;;3.26;100.00;97748.56;4188557;28;20032;-76
2023/02/24 06:16:17;;;;;;;21.00;7.70;;;;;;;3.31;100.00;97749.13;4195514;28;20443;-77
2023/02/24 06:18:17;;;;;;;22.10;7.90;;;;;;;3.24;100.00;97757.13;4192702;28;20029;-76
2023/02/24 06:20:17;;;;;;;22.58;9.00;;;;;;;3.17;100.00;97754.19;4192745;28;20023;-76
2023/02/24 06:22:21;;;;;;;20.00;8.43;;;;;;;3.20;100.00;97747.22;4196498;28;20111;-76
2023/02/24 06:24:21;;;;;;;19.58;7.10;;;;;;;3.22;100.00;97747.66;4193732;28;20226;-76
2023/02/24 06:26:23;;;;;;;21.42;8.35;;;;;;;3.20;100.00;97742.53;4195577;28;20058;-76
2023/02/24 06:28:24;;;;;;;23.45;7.68;;;;;;;3.23;100.00;97741.06;4194364;28;20071;-77
2023/02/24 06:30:25;;;;;;;21.38;8.77;;;;;;;3.20;100.00;97755.41;4192554;28;20047;-76
2023/02/24 06:32:26;;;;;;;21.27;7.72;;;;;;;3.16;100.00;97749.88;4197351;28;20052;-76
2023/02/24 06:34:26;;;;;;;26.38;9.00;;;;;;;3.08;100.00;97759.78;4195072;28;20174;-76
2023/02/24 06:36:27;;;;;;;22.48;7.68;;;;;;;3.16;100.00;97752.59;4194494;28;20564;-77
2023/02/24 06:38:27;;;;;;;24.95;7.70;;;;;;;3.16;100.00;97762.75;4195651;28;20075;-77
2023/02/24 06:40:28;;;;;;;21.23;7.15;;;;;;;3.14;100.00;97746.66;4193751;28;20108;-77
2023/02/24 06:42:28;;;;;;;20.85;8.50;;;;;;;3.08;100.00;97756.25;4194918;28;20040;-78
2023/02/24 06:44:30;;;;;;;18.55;7.07;;;;;;;3.01;100.00;97751.38;4193770;28;20131;-78
2023/02/24 06:46:30;;;;;;;18.08;7.20;;;;;;;3.03;100.00;97753.75;4198708;28;20052;-78
2023/02/24 06:48:32;;;;;;;22.85;8.68;;;;;;;2.99;100.00;97750.94;4195849;28;20214;-78
2023/02/24 06:50:33;;;;;;;23.55;7.55;;;;;;;2.96;100.00;97746.16;4197045;28;20048;-78
2023/02/24 06:52:33;;;;;;;24.70;8.27;;;;;;;2.94;100.00;97742.19;4194810;28;20056;-78
2023/02/24 06:54:34;;;;;;;22.23;7.40;;;;;;;2.91;100.00;97737.41;4201802;28;20066;-78
2023/02/24 06:56:37;;;;;;;16.10;8.00;;;;;;;2.93;100.00;97746.06;4194808;28;20037;-78
2023/02/24 06:58:38;;;;;;;19.23;7.63;;;;;;;2.90;100.00;97738.56;4193283;28;20036;-78
2023/02/24 07:00:38;;;;;;;19.30;7.78;;;;;;;2.95;100.00;97744.56;4196970;28;20036;-78
2023/02/24 07:02:38;;;;;;;18.08;7.65;;;;;;;2.98;100.00;97740.31;4192996;28;20469;-78
2023/02/24 07:04:46;;;;;;;22.88;7.95;;;;;;;2.98;100.00;97751.25;4193220;28;20532;-78
2023/02/24 07:06:51;;;;;;;15.43;6.18;;;;;;;3.02;100.00;97742.03;4194761;28;20384;-78
2023/02/24 07:08:51;;;;;;;21.35;7.10;;;;;;;2.90;100.00;97733.88;4192884;28;20048;-78
2023/02/24 07:10:56;;;;;;;16.45;6.45;;;;;;;2.93;100.00;97741.38;4192617;28;20055;-78
2023/02/24 07:12:58;;;;;;;18.13;8.07;;;;;;;2.93;100.00;97740.59;4192111;28;20051;-78
2023/02/24 07:14:58;;;;;;;18.63;6.88;;;;;;;2.98;100.00;97745.78;4196659;28;20047;-78
2023/02/24 07:16:59;;;;;;;17.85;7.15;;;;;;;3.03;100.00;97742.81;4196679;28;20039;-78
2023/02/24 07:19:10;;;;;;;22.10;6.95;;;;;;;3.02;100.00;97728.38;4193404;28;20041;-77
2023/02/24 07:21:10;;;;;;;20.05;7.38;;;;;;;3.06;100.00;97731.19;4195953;28;20051;-77
2023/02/24 07:23:15;;;;;;;23.40;7.78;;;;;;;3.05;100.00;97733.13;4195793;28;20029;-77
2023/02/24 07:25:31;;;;;;;18.80;7.95;;;;;;;2.97;100.00;97730.53;4193384;28;20484;-77
2023/02/24 07:27:32;;;;;;;22.73;9.70;;;;;;;2.95;100.00;97735.56;4192772;28;20041;-77
2023/02/24 07:29:34;;;;;;;21.30;8.77;;;;;;;2.97;100.00;97727.81;4194863;28;20087;-77
2023/02/24 07:31:35;;;;;;;17.52;8.07;;;;;;;2.96;100.00;97728.97;4198102;28;20044;-77
2023/02/24 07:33:43;;;;;;;20.35;10.10;;;;;;;2.96;100.00;97731.69;4193568;28;20391;-77
2023/02/24 07:35:51;;;;;;;19.92;7.47;;;;;;;2.93;100.00;97724.19;4202987;28;20056;-77
2023/02/24 07:37:51;;;;;;;27.50;9.48;;;;;;;2.98;100.00;97718.47;4102732;28;20760;-77
2023/02/24 07:39:51;;;;;;;21.17;8.32;;;;;;;3.00;100.00;97710.75;4203736;28;20103;-77
2023/02/24 07:41:58;;;;;;;19.73;9.10;;;;;;;3.00;100.00;97714.25;4192828;28;20132;-77
2023/02/24 07:44:02;;;;;;;20.45;7.35;;;;;;;3.00;100.00;97708.81;4190292;28;20051;-77
2023/02/24 07:46:11;;;;;;;21.23;7.85;;;;;;;3.05;100.00;97694.88;4194794;28;20081;-77
2023/02/24 07:48:13;;;;;;;20.17;9.07;;;;;;;3.16;100.00;97702.59;4199906;28;20063;-77
2023/02/24 07:50:17;;;;;;;25.20;10.07;;;;;;;3.13;100.00;97701.34;4193089;28;20473;-77
2023/02/24 07:52:17;;;;;;;18.35;6.80;;;;;;;3.18;100.00;97695.63;4192821;28;20526;-77
2023/02/24 07:54:22;;;;;;;19.13;8.20;;;;;;;3.25;100.00;97695.84;4191376;28;20020;-77
2023/02/24 07:56:26;;;;;;;17.45;7.88;;;;;;;3.28;100.00;97689.66;4194672;28;20057;-77
2023/02/24 07:58:27;;;;;;;14.90;6.70;;;;;;;3.39;100.00;97681.72;4194526;28;20123;-77
2023/02/24 08:00:29;;;;;;;14.13;7.15;;;;;;;3.45;100.00;97683.06;4196752;28;20048;-77
2023/02/24 08:02:29;;;;;;;9.17;4.40;;;;;;;3.42;100.00;97681.06;4193466;28;20139;-77
2023/02/24 08:04:31;;;;;;;15.45;6.10;;;;;;;3.45;100.00;97679.53;4195006;28;20071;-77
2023/02/24 08:06:36;;;;;;;10.93;5.10;;;;;;;3.47;100.00;97677.25;4194299;28;20115;-77
2023/02/24 08:08:56;;;;;;;11.20;5.28;;;;;;;3.43;100.00;97673.63;4197912;28;20029;-77
2023/02/24 08:11:02;;;;;;;12.07;4.97;;;;;;;3.47;100.00;97666.31;4193550;28;20540;-77
2023/02/24 08:13:06;;;;;;;8.95;3.90;;;;;;;3.46;100.00;97670.97;4197059;28;20226;-77
2023/02/24 08:15:07;;;;;;;9.80;4.20;;;;;;;3.41;100.00;97673.19;4193984;28;20431;-77
2023/02/24 08:17:08;;;;;;;10.45;4.18;;;;;;;3.42;100.00;97667.38;4197894;28;20045;-77
2023/02/24 08:19:12;;;;;;;11.63;4.45;;;;;;;3.45;100.00;97652.19;4190930;28;20063;-77
2023/02/24 08:21:13;;;;;;;10.45;4.65;;;;;;;3.54;100.00;97659.09;4208457;28;20054;-77
2023/02/24 08:23:13;;;;;;;8.30;4.20;;;;;;;3.63;100.00;97651.50;4190743;28;20127;-77
2023/02/24 08:25:17;;;;;;;7.70;4.05;;;;;;;3.61;100.00;97659.28;4194622;28;20131;-77
2023/02/24 08:27:19;;;;;;;8.93;4.15;;;;;;;3.58;100.00;97656.47;4192831;28;20036;-77
2023/02/24 08:29:20;;;;;;;8.95;4.70;;;;;;;3.61;100.00;97650.28;4194582;28;20056;-77
2023/02/24 08:31:20;;;;;;;10.00;4.43;;;;;;;3.61;100.00;97653.81;4192197;28;20480;-77
2023/02/24 08:33:21;;;;;;;8.30;4.10;;;;;;;3.68;100.00;97647.72;4192360;28;20068;-77
2023/02/24 08:35:30;;;;;;;9.70;4.55;;;;;;;3.62;100.00;97641.72;4191195;28;20040;-77
2023/02/24 08:37:38;;;;;;;9.80;4.57;;;;;;;3.71;100.00;97646.22;4190796;28;20110;-77
2023/02/24 08:39:39;;;;;;;7.93;4.18;;;;;;;3.63;100.00;97637.81;4192871;28;20048;-77
2023/02/24 08:41:50;;;;;;;8.43;4.70;;;;;;;3.63;100.00;97637.03;4193643;28;20110;-76
2023/02/24 08:43:50;;;;;;;9.10;5.10;;;;;;;3.58;100.00;97627.16;4190033;28;20127;-77
2023/02/24 08:46:02;;;;;;;9.73;5.35;;;;;;;3.62;100.00;97630.75;4192599;28;20123;-77
2023/02/24 08:48:17;;;;;;;14.63;6.30;;;;;;;3.61;100.00;97634.66;4197512;28;20068;-77
2023/02/24 08:50:18;;;;;;;9.07;4.35;;;;;;;3.59;100.00;97625.22;4195373;28;20020;-76
2023/02/24 08:52:19;;;;;;;12.98;4.15;;;;;;;3.60;100.00;97621.34;4193089;28;20035;-77
2023/02/24 08:54:25;;;;;;;13.43;5.10;;;;;;;3.65;100.00;97616.41;4195650;28;20024;-77
2023/02/24 08:56:33;;;;;;;10.77;5.93;;;;;;;3.69;100.00;97613.75;4195686;28;20592;-77
2023/02/24 08:58:45;;;;;;;9.63;4.45;;;;;;;3.80;100.00;97603.84;4189916;28;20047;-77
2023/02/24 09:00:49;;;;;;;6.75;3.55;;;;;;;3.82;100.00;97601.56;4194490;28;19939;-76
2023/02/24 09:02:49;;;;;;;8.98;4.30;;;;;;;3.88;100.00;97608.34;4190465;28;20054;-77
2023/02/24 09:05:03;;;;;;;6.47;4.03;;;;;;;3.99;100.00;97594.91;4191338;28;20151;-77
2023/02/24 09:07:09;;;;;;;8.00;4.10;;;;;;;4.05;100.00;97601.69;4189733;28;20044;-76
2023/02/24 09:09:16;;;;;;;9.82;4.70;;;;;;;4.12;100.00;97599.13;4193924;28;20047;-77
2023/02/24 09:11:16;;;;;;;8.55;4.10;;;;;;;4.12;100.00;97585.41;4192936;28;20024;-76
2023/02/24 09:13:17;;;;;;;7.47;3.38;;;;;;;4.14;100.00;97585.09;4195168;28;20648;-76
2023/02/24 09:15:19;;;;;;;9.82;4.28;;;;;;;4.24;100.00;97581.78;4192964;28;20079;-76
2023/02/24 09:17:38;;;;;;;8.55;4.45;;;;;;;4.28;100.00;97581.84;4191068;28;20058;-76
2023/02/24 09:22:13;;;;;;;7.18;4.10;;;;;;;4.38;100.00;97565.63;4191920;28;20040;-76
2023/02/24 09:24:25;;;;;;;7.25;4.07;;;;;;;4.43;100.00;97565.38;4193931;28;20056;-76
2023/02/24 09:26:31;;;;;;;7.67;3.73;;;;;;;4.50;100.00;97556.50;4198691;28;20040;-76
2023/02/24 09:28:47;;;;;;;8.80;4.35;;;;;;;4.60;100.00;97555.13;4192289;28;20068;-76
2023/02/24 09:30:56;;;;;;;6.40;3.50;;;;;;;4.61;100.00;97543.03;4195716;28;20098;-76
2023/02/24 09:33:00;;;;;;;7.47;3.90;;;;;;;4.62;100.00;97536.38;4191289;28;20483;-76
2023/02/24 09:35:00;;;;;;;8.05;4.03;;;;;;;4.68;100.00;97530.25;4192199;28;20460;-76
2023/02/24 09:37:04;;;;;;;7.60;4.43;;;;;;;4.62;100.00;97526.22;4189833;28;20036;-76
2023/02/24 09:41:52;;;;;;;7.53;4.25;;;;;;;4.64;100.00;97526.66;4192109;28;20032;-76
2023/02/24 09:43:46;;;;;;;5.55;3.75;;;;;;;4.64;100.00;97523.13;4189972;28;20044;-76
2023/02/24 09:45:52;;;;;;;7.28;3.50;;;;;;;4.65;100.00;97514.56;4190568;28;20045;-76
2023/02/24 09:47:56;;;;;;;7.40;3.97;;;;;;;4.73;100.00;97520.97;4191909;28;20044;-76
2023/02/24 09:50:03;;;;;;;7.00;3.22;;;;;;;4.76;100.00;97517.47;4190713;28;20369;-76